Time;durP1;ratioP1;P1;durP2;ratioP2;P2;SDS_P1;SDS_P2;PMS_P1;PMS_P2;Temp;Humidity;BMP_temperature;BMP_pressure;BME280_temperature;BME280_humidity;BME280_pressure;Samples;Min_cycle;Max_cycle;Signal;HPM_P1;HPM_P2
2024/01/19 00:00:43;;;;;;;46.57;21.07;;;-0.50;99.90;;;;;;5039146;28;20166;-83
2024/01/19 00:03:09;;;;;;;51.57;20.57;;;-0.40;99.90;;;;;;5038951;28;20185;-83
2024/01/19 00:05:35;;;;;;;53.03;22.90;;;-0.40;99.90;;;;;;5038995;28;20166;-83
2024/01/19 00:08:01;;;;;;;48.73;20.83;;;-0.30;99.90;;;;;;5020986;28;20300;-83
2024/01/19 00:10:27;;;;;;;52.50;21.52;;;-0.30;99.90;;;;;;5038982;28;20166;-83
2024/01/19 00:12:53;;;;;;;56.03;22.80;;;-0.30;99.90;;;;;;5038997;28;20172;-83
2024/01/19 00:15:18;;;;;;;54.00;20.50;;;-0.30;99.90;;;;;;5037729;28;20236;-83
2024/01/19 00:17:44;;;;;;;52.63;21.00;;;-0.30;99.90;;;;;;5038535;28;20555;-83
2024/01/19 00:20:10;;;;;;;49.90;20.93;;;-0.30;99.90;;;;;;5038548;28;20638;-83
2024/01/19 00:22:36;;;;;;;51.60;20.27;;;-0.30;99.90;;;;;;5020124;28;20162;-83
2024/01/19 00:25:02;;;;;;;48.00;20.63;;;-0.30;99.90;;;;;;5020286;28;20216;-84
2024/01/19 00:27:29;;;;;;;53.13;23.38;;;-0.40;99.90;;;;;;5037781;28;20428;-83
2024/01/19 00:29:55;;;;;;;48.53;21.38;;;-0.40;99.90;;;;;;5037762;28;20162;-84
2024/01/19 00:32:21;;;;;;;53.92;21.25;;;-0.40;99.90;;;;;;5038118;28;20172;-84
2024/01/19 00:34:47;;;;;;;52.67;21.63;;;-0.40;99.90;;;;;;5037487;28;20243;-83
2024/01/19 00:37:14;;;;;;;55.97;19.50;;;-0.40;99.90;;;;;;5019988;28;20590;-83
2024/01/19 00:39:40;;;;;;;54.55;20.20;;;-0.40;99.90;;;;;;5037716;28;20585;-83
2024/01/19 00:42:06;;;;;;;57.80;22.60;;;-0.50;99.90;;;;;;5037576;28;20162;-83
2024/01/19 00:44:32;;;;;;;59.50;22.63;;;-0.50;99.90;;;;;;5019856;28;20231;-83
2024/01/19 00:46:58;;;;;;;52.25;21.92;;;-0.50;99.90;;;;;;5037308;28;20429;-83
2024/01/19 00:49:24;;;;;;;50.80;20.98;;;-0.50;99.90;;;;;;5020475;28;20528;-83
2024/01/19 00:51:50;;;;;;;47.07;19.90;;;-0.60;99.90;;;;;;5037284;28;20170;-83
2024/01/19 00:54:16;;;;;;;53.88;19.80;;;-0.60;99.90;;;;;;5037178;28;20809;-83
2024/01/19 00:56:42;;;;;;;53.73;21.67;;;-0.60;99.90;;;;;;5037220;28;20189;-83
2024/01/19 00:59:08;;;;;;;53.00;23.13;;;-0.60;99.90;;;;;;5037346;28;20170;-83
2024/01/19 01:01:36;;;;;;;48.88;19.00;;;-0.60;99.90;;;;;;5037217;28;20158;-84
2024/01/19 01:04:02;;;;;;;49.65;20.10;;;-0.60;99.90;;;;;;5019558;28;20170;-83
2024/01/19 01:06:28;;;;;;;45.43;19.90;;;-0.60;99.90;;;;;;5036860;28;20712;-83
2024/01/19 01:08:54;;;;;;;51.77;20.70;;;-0.60;99.90;;;;;;5037322;28;20971;-84
2024/01/19 01:11:21;;;;;;;59.53;22.77;;;-0.60;99.90;;;;;;5037042;28;20400;-84
2024/01/19 01:13:47;;;;;;;56.25;21.95;;;-0.50;99.90;;;;;;5037491;28;20158;-84
2024/01/19 01:16:13;;;;;;;53.35;21.55;;;-0.50;99.90;;;;;;5037741;28;20682;-84
2024/01/19 01:18:39;;;;;;;49.28;20.08;;;-0.50;99.90;;;;;;5019091;28;20170;-84
2024/01/19 01:21:06;;;;;;;53.22;20.70;;;-0.50;99.90;;;;;;5037900;28;20161;-84
2024/01/19 01:23:32;;;;;;;51.28;21.13;;;-0.40;99.90;;;;;;5037318;28;20627;-84
2024/01/19 01:25:57;;;;;;;51.00;19.30;;;-0.40;99.90;;;;;;5036818;28;20250;-84
2024/01/19 01:28:23;;;;;;;50.60;19.73;;;-0.50;99.90;;;;;;5037365;28;20626;-84
2024/01/19 01:30:48;;;;;;;56.27;20.27;;;-0.50;99.90;;;;;;5037421;28;20177;-84
2024/01/19 01:33:14;;;;;;;44.30;18.13;;;-0.50;99.90;;;;;;5037562;28;20165;-84
2024/01/19 01:35:40;;;;;;;46.93;18.87;;;-0.50;99.90;;;;;;5019218;28;20201;-84
2024/01/19 01:38:06;;;;;;;48.43;19.50;;;-0.60;99.90;;;;;;5019687;28;20432;-84
2024/01/19 01:40:32;;;;;;;46.97;19.60;;;-0.70;99.90;;;;;;5037339;28;20165;-84
2024/01/19 01:43:00;;;;;;;51.90;19.13;;;-0.80;99.90;;;;;;5037409;28;20412;-84
2024/01/19 01:45:26;;;;;;;64.50;23.02;;;-0.90;99.90;;;;;;5019571;28;20300;-84
2024/01/19 01:47:53;;;;;;;59.00;21.63;;;-1.10;99.90;;;;;;5037599;28;20667;-84
2024/01/19 01:50:19;;;;;;;44.40;18.33;;;-1.10;99.90;;;;;;5019074;28;20639;-84
2024/01/19 01:52:45;;;;;;;46.85;20.00;;;-1.30;99.90;;;;;;5019202;28;20527;-84
2024/01/19 01:55:11;;;;;;;57.85;19.48;;;-1.30;99.90;;;;;;5019274;28;20198;-84
2024/01/19 01:57:37;;;;;;;51.25;19.55;;;-1.40;99.90;;;;;;5037229;28;20268;-84
2024/01/19 02:00:03;;;;;;;48.30;19.07;;;-1.40;99.90;;;;;;5036430;28;20202;-84
2024/01/19 02:02:28;;;;;;;43.33;17.75;;;-1.50;99.90;;;;;;5037091;28;20173;-84
2024/01/19 02:04:54;;;;;;;45.27;18.27;;;-1.50;99.90;;;;;;5019099;28;20590;-84
2024/01/19 02:07:20;;;;;;;50.80;18.50;;;-1.50;99.90;;;;;;5036935;28;20479;-84
2024/01/19 02:09:45;;;;;;;43.17;18.27;;;-1.60;99.90;;;;;;5018871;28;20431;-84
2024/01/19 02:12:12;;;;;;;49.57;20.27;;;-1.60;99.90;;;;;;5037176;28;20165;-84
2024/01/19 02:14:37;;;;;;;48.53;20.52;;;-1.70;99.90;;;;;;5037047;28;20354;-84
2024/01/19 02:17:03;;;;;;;44.60;17.53;;;-1.70;99.90;;;;;;5018482;28;20221;-84
2024/01/19 02:19:29;;;;;;;47.57;17.43;;;-1.70;99.90;;;;;;5036884;28;20172;-84
2024/01/19 02:21:55;;;;;;;53.83;19.30;;;-1.70;99.90;;;;;;5036320;28;20172;-85
2024/01/19 02:24:21;;;;;;;46.20;18.30;;;-1.80;99.90;;;;;;5036601;28;20170;-84
2024/01/19 02:26:47;;;;;;;54.03;20.23;;;-1.90;99.90;;;;;;5036542;28;20967;-84
2024/01/19 02:29:12;;;;;;;51.80;20.33;;;-1.90;99.90;;;;;;5036389;28;20169;-84
2024/01/19 02:31:39;;;;;;;52.03;19.67;;;-1.90;99.90;;;;;;5035978;28;20406;-84
2024/01/19 02:34:04;;;;;;;47.33;17.70;;;-1.90;99.90;;;;;;5036225;28;20223;-84
2024/01/19 02:36:30;;;;;;;52.27;20.73;;;-2.00;99.90;;;;;;5018539;28;20188;-84
2024/01/19 02:38:56;;;;;;;47.33;21.17;;;-2.00;99.90;;;;;;5036414;28;20215;-84
2024/01/19 02:41:21;;;;;;;52.60;20.60;;;-2.00;99.90;;;;;;5036700;28;20251;-84
2024/01/19 02:43:47;;;;;;;50.23;19.70;;;-2.00;99.90;;;;;;5036130;28;20570;-84
2024/01/19 02:46:14;;;;;;;54.87;20.20;;;-2.10;99.90;;;;;;5036627;28;20219;-84
2024/01/19 02:48:40;;;;;;;45.08;18.88;;;-2.10;99.90;;;;;;5036877;28;20170;-84
2024/01/19 02:51:06;;;;;;;52.50;20.20;;;-2.20;99.90;;;;;;5018782;28;20177;-84
2024/01/19 02:53:31;;;;;;;49.50;21.07;;;-2.20;99.90;;;;;;5019138;28;20177;-84
2024/01/19 02:55:57;;;;;;;48.50;19.13;;;-2.20;99.90;;;;;;5018370;28;20190;-84
2024/01/19 02:58:23;;;;;;;47.33;20.40;;;-2.20;99.90;;;;;;5036445;28;20231;-84
2024/01/19 03:00:48;;;;;;;53.13;21.33;;;-2.20;99.90;;;;;;5036076;28;20170;-84
2024/01/19 03:03:14;;;;;;;52.10;21.20;;;-2.20;99.90;;;;;;5036596;28;20162;-84
2024/01/19 03:05:39;;;;;;;52.27;22.23;;;-2.20;99.90;;;;;;5036630;28;20527;-84
2024/01/19 03:08:05;;;;;;;45.97;20.00;;;-2.20;99.90;;;;;;5018276;28;20292;-84
2024/01/19 03:10:31;;;;;;;49.57;20.17;;;-2.10;99.90;;;;;;5036232;28;20235;-84
2024/01/19 03:12:57;;;;;;;48.53;18.98;;;-2.20;99.90;;;;;;5035620;28;20670;-84
2024/01/19 03:15:22;;;;;;;43.10;17.80;;;-2.10;99.90;;;;;;5035380;28;20235;-82
2024/01/19 03:17:48;;;;;;;46.33;19.40;;;-2.10;99.90;;;;;;5035648;28;20252;-84
2024/01/19 03:20:14;;;;;;;45.87;19.50;;;-2.00;99.90;;;;;;5035702;28;20243;-84
2024/01/19 03:22:39;;;;;;;49.03;20.40;;;-2.00;99.90;;;;;;5035664;28;20573;-84
2024/01/19 03:25:06;;;;;;;48.40;18.57;;;-2.00;99.90;;;;;;5035867;28;20196;-84
2024/01/19 03:27:32;;;;;;;49.08;21.38;;;-1.90;99.90;;;;;;5036318;28;20188;-84
2024/01/19 03:29:57;;;;;;;45.20;18.40;;;-1.90;99.90;;;;;;5039602;28;20162;-84
2024/01/19 03:32:23;;;;;;;48.17;19.17;;;-2.00;99.90;;;;;;5021692;28;20655;-84
2024/01/19 03:34:49;;;;;;;46.83;18.50;;;-2.00;99.90;;;;;;5021505;28;20196;-84
2024/01/19 03:37:15;;;;;;;48.30;21.50;;;-2.00;99.90;;;;;;5039142;28;20178;-84
2024/01/19 03:39:40;;;;;;;44.33;17.90;;;-1.90;99.90;;;;;;5039473;28;20410;-84
2024/01/19 03:42:06;;;;;;;51.57;19.87;;;-1.90;99.90;;;;;;5038870;28;20201;-84
2024/01/19 03:44:31;;;;;;;45.13;17.47;;;-1.90;99.90;;;;;;5038666;28;20162;-84
2024/01/19 03:46:59;;;;;;;43.73;17.20;;;-1.90;99.90;;;;;;5039144;28;20185;-84
2024/01/19 03:49:25;;;;;;;45.75;17.20;;;-1.80;99.90;;;;;;5021631;28;20204;-84
2024/01/19 03:52:01;;;;;;;44.42;17.65;;;-1.80;99.90;;;;;;5021010;28;20181;-84
2024/01/19 03:54:27;;;;;;;47.90;19.83;;;-1.80;99.90;;;;;;5038623;28;20204;-84
2024/01/19 03:56:57;;;;;;;37.28;13.98;;;-1.90;99.90;;;;;;5038585;28;20184;-84
2024/01/19 03:59:22;;;;;;;37.17;16.15;;;-1.90;99.90;;;;;;5020933;28;20166;-83
2024/01/19 04:01:48;;;;;;;39.17;13.40;;;-1.90;99.90;;;;;;5038727;28;20578;-84
2024/01/19 04:04:14;;;;;;;38.90;15.47;;;-1.90;99.90;;;;;;5038470;28;20685;-83
2024/01/19 04:06:39;;;;;;;40.73;14.57;;;-1.80;99.90;;;;;;5038253;28;20182;-83
2024/01/19 04:09:06;;;;;;;40.90;14.60;;;-1.70;99.90;;;;;;5037886;28;20233;-84
2024/01/19 04:11:36;;;;;;;32.97;12.45;;;-1.80;99.90;;;;;;5020585;28;20590;-84
2024/01/19 04:14:02;;;;;;;34.75;14.15;;;-1.70;99.90;;;;;;5038982;28;20645;-84
2024/01/19 04:16:28;;;;;;;40.75;15.30;;;-1.70;99.90;;;;;;5038889;28;20194;-84
2024/01/19 04:18:54;;;;;;;33.90;13.30;;;-1.70;99.90;;;;;;5039100;28;20164;-85
2024/01/19 04:21:19;;;;;;;36.90;11.73;;;-1.70;99.90;;;;;;5038765;28;20485;-84
2024/01/19 04:23:45;;;;;;;35.70;12.20;;;-1.70;99.90;;;;;;5038722;28;20166;-84
2024/01/19 04:26:11;;;;;;;46.50;13.97;;;-1.70;99.90;;;;;;5039104;28;20674;-84
2024/01/19 04:28:38;;;;;;;40.33;14.02;;;-1.70;99.90;;;;;;5038678;28;20166;-84
2024/01/19 04:31:05;;;;;;;36.63;12.55;;;-1.70;99.90;;;;;;5038482;28;20253;-84
2024/01/19 04:33:30;;;;;;;37.95;13.60;;;-1.70;99.90;;;;;;5020871;28;20731;-84
2024/01/19 04:35:56;;;;;;;35.60;13.47;;;-1.70;99.90;;;;;;5038117;28;20233;-84
2024/01/19 04:38:22;;;;;;;34.80;12.10;;;-1.60;99.90;;;;;;5038415;28;20181;-85
2024/01/19 04:40:48;;;;;;;44.20;14.70;;;-1.60;99.90;;;;;;5037634;28;20169;-85
2024/01/19 04:43:13;;;;;;;35.50;13.30;;;-1.50;99.90;;;;;;5038706;28;20208;-85
2024/01/19 04:45:39;;;;;;;31.43;12.23;;;-1.40;99.90;;;;;;5038131;28;20166;-85
2024/01/19 04:48:05;;;;;;;33.50;14.13;;;-1.50;99.90;;;;;;5021077;28;20792;-84
2024/01/19 04:50:30;;;;;;;38.67;13.80;;;-1.50;99.90;;;;;;5038680;28;20180;-85
2024/01/19 04:52:56;;;;;;;39.63;13.50;;;-1.50;99.90;;;;;;5038132;28;20408;-85
2024/01/19 04:55:22;;;;;;;32.50;12.07;;;-1.40;99.90;;;;;;5037828;28;20200;-84
2024/01/19 04:57:47;;;;;;;32.87;11.63;;;-1.40;99.90;;;;;;5020263;28;20219;-84
2024/01/19 05:00:14;;;;;;;36.20;13.77;;;-1.40;99.90;;;;;;5037895;28;20245;-84
2024/01/19 05:02:40;;;;;;;34.30;12.38;;;-1.30;99.90;;;;;;5037936;28;20177;-85
2024/01/19 05:05:06;;;;;;;34.53;12.40;;;-1.20;99.90;;;;;;5037612;28;20170;-84
2024/01/19 05:07:31;;;;;;;31.60;11.93;;;-1.20;99.90;;;;;;5019983;28;20633;-84
2024/01/19 05:10:00;;;;;;;36.40;13.00;;;-1.20;99.90;;;;;;5037993;28;20415;-84
2024/01/19 05:12:26;;;;;;;30.17;11.73;;;-1.20;99.90;;;;;;5037651;28;20321;-84
2024/01/19 05:14:51;;;;;;;38.20;12.77;;;-1.20;99.90;;;;;;5037824;28;20198;-85
2024/01/19 05:17:18;;;;;;;36.10;13.67;;;-1.30;99.90;;;;;;5019558;28;20213;-84
2024/01/19 05:19:44;;;;;;;37.13;12.32;;;-1.20;99.90;;;;;;5037463;28;20166;-84
2024/01/19 05:22:10;;;;;;;36.28;13.00;;;-1.30;99.90;;;;;;5019705;28;20256;-85
2024/01/19 05:24:40;;;;;;;42.53;13.23;;;-1.30;99.90;;;;;;5037705;28;20304;-84
2024/01/19 05:27:06;;;;;;;43.00;14.57;;;-1.40;99.90;;;;;;5037808;28;20209;-84
2024/01/19 05:29:31;;;;;;;34.17;13.57;;;-1.30;99.90;;;;;;5037900;28;20504;-85
2024/01/19 05:31:57;;;;;;;37.80;13.17;;;-1.40;99.90;;;;;;5037795;28;20253;-84
2024/01/19 05:34:23;;;;;;;39.83;13.93;;;-1.40;99.90;;;;;;5037965;28;20173;-85
2024/01/19 05:36:48;;;;;;;36.60;13.53;;;-1.40;99.90;;;;;;5019096;28;20193;-84
2024/01/19 05:39:14;;;;;;;34.80;13.50;;;-1.40;99.90;;;;;;5037376;28;20181;-84
2024/01/19 05:41:40;;;;;;;34.03;13.83;;;-1.40;99.90;;;;;;5037468;28;20191;-84
2024/01/19 05:44:05;;;;;;;40.90;15.00;;;-1.40;99.90;;;;;;5036675;28;20170;-84
2024/01/19 05:46:31;;;;;;;37.03;12.70;;;-1.50;99.90;;;;;;5037221;28;20423;-84
2024/01/19 05:48:57;;;;;;;37.70;13.70;;;-1.50;99.90;;;;;;5036927;28;20166;-84
2024/01/19 05:51:23;;;;;;;52.03;15.50;;;-1.50;99.90;;;;;;5018655;28;20181;-84
2024/01/19 05:53:48;;;;;;;40.90;13.33;;;-1.40;99.90;;;;;;5037570;28;20174;-84
2024/01/19 05:56:14;;;;;;;38.37;12.97;;;-1.40;99.90;;;;;;5036677;28;20618;-84
2024/01/19 05:58:39;;;;;;;42.70;15.30;;;-1.40;99.90;;;;;;5036661;28;20177;-84
2024/01/19 06:01:05;;;;;;;37.30;13.90;;;-1.40;99.90;;;;;;5037072;28;20201;-84
2024/01/19 06:03:35;;;;;;;42.17;14.90;;;-1.40;99.90;;;;;;5036582;28;20166;-84
2024/01/19 06:06:02;;;;;;;46.45;15.75;;;-1.40;99.90;;;;;;5019627;28;20470;-85
2024/01/19 06:08:28;;;;;;;40.95;13.80;;;-1.40;99.90;;;;;;5037206;28;20186;-84
2024/01/19 06:10:54;;;;;;;38.67;13.55;;;-1.40;99.90;;;;;;5037567;28;20277;-85
2024/01/19 06:13:20;;;;;;;39.77;14.47;;;-1.50;99.90;;;;;;5036964;28;20623;-85
2024/01/19 06:15:46;;;;;;;41.03;14.03;;;-1.60;99.90;;;;;;5036903;28;20444;-84
2024/01/19 06:18:12;;;;;;;38.80;14.70;;;-1.60;99.90;;;;;;5036620;28;20450;-85
2024/01/19 06:20:41;;;;;;;46.07;14.90;;;-1.60;99.90;;;;;;5037210;28;20158;-85
2024/01/19 06:23:08;;;;;;;35.50;12.60;;;-1.70;99.90;;;;;;5037013;28;20173;-85
2024/01/19 06:25:35;;;;;;;41.15;13.13;;;-1.70;99.90;;;;;;5036941;28;20166;-84
2024/01/19 06:28:01;;;;;;;40.95;13.52;;;-1.70;99.90;;;;;;5017382;28;20189;-85
2024/01/19 06:30:26;;;;;;;34.80;12.93;;;-1.80;99.90;;;;;;5036977;28;20184;-85
2024/01/19 06:32:52;;;;;;;38.43;14.10;;;-1.90;99.90;;;;;;5037269;28;20177;-86
2024/01/19 06:35:18;;;;;;;39.33;14.17;;;-1.90;99.90;;;;;;5037396;28;20590;-85
2024/01/19 06:37:43;;;;;;;35.47;12.23;;;-2.00;99.90;;;;;;5037833;28;20185;-85
2024/01/19 06:40:14;;;;;;;35.60;13.13;;;-2.00;99.90;;;;;;5036969;28;20221;-85
2024/01/19 06:42:40;;;;;;;33.50;12.38;;;-2.00;99.90;;;;;;5037866;28;20157;-85
2024/01/19 06:45:06;;;;;;;32.45;12.05;;;-2.00;99.90;;;;;;5037621;28;20220;-85
2024/01/19 06:47:32;;;;;;;52.72;13.68;;;-2.10;99.90;;;;;;5037774;28;20184;-85
2024/01/19 06:49:58;;;;;;;32.47;11.33;;;-2.10;99.90;;;;;;5037180;28;20547;-84
2024/01/19 06:52:24;;;;;;;34.50;12.37;;;-2.20;99.90;;;;;;5037386;28;20431;-85
2024/01/19 06:54:49;;;;;;;35.63;12.07;;;-2.30;99.90;;;;;;5038809;28;20193;-85
2024/01/19 06:57:15;;;;;;;31.40;10.30;;;-2.30;99.90;;;;;;5018592;28;20440;-84
2024/01/19 06:59:41;;;;;;;36.33;13.90;;;-2.30;99.90;;;;;;5019239;28;20180;-85
2024/01/19 07:02:07;;;;;;;37.50;12.40;;;-2.40;99.90;;;;;;5019621;28;20169;-85
2024/01/19 07:04:33;;;;;;;31.60;11.35;;;-2.40;99.90;;;;;;5041122;28;20245;-85
2024/01/19 07:06:58;;;;;;;33.10;12.43;;;-2.40;99.90;;;;;;5041005;28;20678;-85
2024/01/19 07:09:26;;;;;;;34.03;12.80;;;-2.50;99.90;;;;;;5041158;28;20244;-84
2024/01/19 07:11:53;;;;;;;36.85;11.88;;;-2.50;99.90;;;;;;5040772;28;20166;-84
2024/01/19 07:14:18;;;;;;;34.22;12.20;;;-2.50;99.90;;;;;;5023536;28;20168;-85
2024/01/19 07:16:44;;;;;;;35.70;10.27;;;-2.60;99.90;;;;;;5041241;28;20233;-84
2024/01/19 07:19:11;;;;;;;30.63;12.33;;;-2.60;99.90;;;;;;5041088;28;20457;-84
2024/01/19 07:21:40;;;;;;;34.58;12.77;;;-2.70;99.90;;;;;;5040858;28;20223;-85
2024/01/19 07:24:08;;;;;;;35.85;12.68;;;-2.60;99.90;;;;;;5040762;28;20173;-84
2024/01/19 07:26:34;;;;;;;30.65;10.93;;;-2.60;99.90;;;;;;5040679;28;20191;-84
2024/01/19 07:29:04;;;;;;;34.88;12.80;;;-2.70;99.90;;;;;;5041145;28;20178;-85
2024/01/19 07:31:31;;;;;;;30.75;11.82;;;-2.80;99.90;;;;;;5040821;28;20170;-85
2024/01/19 07:33:56;;;;;;;37.15;12.93;;;-2.90;99.90;;;;;;5041216;28;20600;-84
2024/01/19 07:36:22;;;;;;;34.53;11.30;;;-2.90;99.90;;;;;;5022635;28;20204;-85
2024/01/19 07:38:48;;;;;;;34.03;11.90;;;-2.90;99.90;;;;;;5041365;28;20238;-84
2024/01/19 07:41:14;;;;;;;30.70;10.60;;;-3.00;99.90;;;;;;5042040;28;20637;-85
2024/01/19 07:43:39;;;;;;;32.27;12.03;;;-3.00;99.90;;;;;;5041119;28;20196;-85
2024/01/19 07:46:05;;;;;;;29.00;10.70;;;-3.00;99.90;;;;;;5041406;28;20755;-85
2024/01/19 07:48:31;;;;;;;40.67;13.43;;;-3.00;99.90;;;;;;5023991;28;20173;-85
2024/01/19 07:50:57;;;;;;;33.85;11.50;;;-3.00;99.90;;;;;;5023790;28;20415;-84
2024/01/19 07:53:22;;;;;;;37.97;12.83;;;-3.10;99.90;;;;;;5024093;28;20259;-84
2024/01/19 07:55:48;;;;;;;28.60;10.43;;;-3.00;99.90;;;;;;5038956;28;20191;-83
2024/01/19 07:58:14;;;;;;;30.77;11.33;;;-3.00;99.90;;;;;;5041869;28;20182;-82
2024/01/19 08:00:39;;;;;;;33.10;11.97;;;-3.00;99.90;;;;;;5024181;28;20166;-84
2024/01/19 08:03:05;;;;;;;37.63;12.03;;;-3.10;99.90;;;;;;5041239;28;20675;-84
2024/01/19 08:05:34;;;;;;;33.60;10.40;;;-3.00;99.90;;;;;;5041135;28;20596;-84
2024/01/19 08:07:59;;;;;;;34.10;11.15;;;-3.10;99.90;;;;;;5041545;28;20228;-84
2024/01/19 08:10:25;;;;;;;43.00;15.80;;;-3.10;99.90;;;;;;5042004;28;20162;-84
2024/01/19 08:12:51;;;;;;;39.87;17.20;;;-3.10;99.90;;;;;;5041560;28;20419;-84
2024/01/19 08:15:17;;;;;;;42.47;15.13;;;-3.10;99.90;;;;;;5041034;28;20192;-84
2024/01/19 08:17:42;;;;;;;40.43;14.10;;;-3.10;99.90;;;;;;5041852;28;20195;-84
2024/01/19 08:20:11;;;;;;;36.57;14.90;;;-3.00;99.90;;;;;;5042004;28;20169;-85
2024/01/19 08:22:37;;;;;;;40.30;14.73;;;-3.00;99.90;;;;;;5024029;28;20172;-84
2024/01/19 08:25:04;;;;;;;41.50;13.23;;;-3.00;99.90;;;;;;5042372;28;20511;-84
2024/01/19 08:27:30;;;;;;;41.22;13.20;;;-3.00;99.90;;;;;;5041897;28;20212;-84
2024/01/19 08:29:56;;;;;;;37.50;14.53;;;-3.00;99.90;;;;;;5042416;28;20172;-84
2024/01/19 08:32:23;;;;;;;32.03;12.77;;;-2.90;99.90;;;;;;5041087;28;20974;-84
2024/01/19 08:34:49;;;;;;;36.90;12.52;;;-2.90;99.90;;;;;;5041554;28;20530;-84
2024/01/19 08:37:15;;;;;;;34.30;12.50;;;-2.90;99.90;;;;;;5041303;28;20185;-84
2024/01/19 08:39:40;;;;;;;36.23;13.07;;;-2.90;99.90;;;;;;5023498;28;20164;-83
2024/01/19 08:42:09;;;;;;;33.20;12.63;;;-2.80;99.90;;;;;;5041026;28;20175;-84
2024/01/19 08:44:35;;;;;;;36.38;12.20;;;-2.80;99.90;;;;;;5040874;28;20196;-84
2024/01/19 08:47:00;;;;;;;39.03;14.40;;;-2.80;99.90;;;;;;5040993;28;20618;-83
2024/01/19 08:49:26;;;;;;;36.60;13.00;;;-2.60;99.90;;;;;;5041158;28;20169;-84
2024/01/19 08:51:53;;;;;;;36.43;13.10;;;-2.50;99.90;;;;;;5040322;28;20169;-84
2024/01/19 08:54:18;;;;;;;34.92;14.27;;;-2.50;99.90;;;;;;5022825;28;20673;-84
2024/01/19 08:56:44;;;;;;;38.77;13.93;;;-2.50;99.90;;;;;;5022516;28;20189;-84
2024/01/19 08:59:12;;;;;;;34.60;13.23;;;-2.40;99.90;;;;;;5039602;28;20165;-85
2024/01/19 09:01:37;;;;;;;46.00;13.68;;;-2.40;99.90;;;;;;5039164;28;20167;-84
2024/01/19 09:04:03;;;;;;;35.30;13.67;;;-2.40;99.90;;;;;;5020539;28;20172;-84
2024/01/19 09:06:29;;;;;;;37.00;14.00;;;-2.30;99.90;;;;;;5021181;28;20191;-84
2024/01/19 09:08:55;;;;;;;36.43;15.40;;;-2.20;99.90;;;;;;5038985;28;20211;-84
2024/01/19 09:11:20;;;;;;;34.87;13.07;;;-2.00;99.90;;;;;;5038827;28;20189;-85
2024/01/19 09:13:46;;;;;;;40.03;13.17;;;-1.90;99.90;;;;;;5039579;28;20412;-84
2024/01/19 09:16:12;;;;;;;41.57;12.90;;;-1.70;99.90;;;;;;5038410;28;20242;-84
2024/01/19 09:18:38;;;;;;;38.37;14.33;;;-1.70;99.90;;;;;;5039382;28;20165;-84
2024/01/19 09:21:04;;;;;;;35.47;12.32;;;-1.70;99.90;;;;;;5038924;28;20179;-84
2024/01/19 09:23:30;;;;;;;43.33;13.45;;;-1.60;99.90;;;;;;5021035;28;20166;-83
2024/01/19 09:25:56;;;;;;;41.50;11.50;;;-1.60;99.90;;;;;;5039195;28;20204;-84
2024/01/19 09:28:22;;;;;;;34.00;12.37;;;-1.50;99.90;;;;;;5020020;28;20170;-84
2024/01/19 09:30:47;;;;;;;34.27;12.63;;;-1.50;99.90;;;;;;5037775;28;20183;-84
2024/01/19 09:33:16;;;;;;;35.40;12.57;;;-1.40;99.90;;;;;;5038394;28;20408;-84
2024/01/19 09:35:42;;;;;;;36.60;12.60;;;-1.40;99.90;;;;;;5037815;28;20182;-84
2024/01/19 09:38:09;;;;;;;43.47;14.65;;;-1.20;99.90;;;;;;5037367;28;20543;-84
2024/01/19 09:40:34;;;;;;;37.10;13.00;;;-1.10;99.90;;;;;;5037310;28;20165;-84
2024/01/19 09:43:01;;;;;;;35.90;14.40;;;-1.00;99.90;;;;;;5037097;28;20189;-83
2024/01/19 09:45:36;;;;;;;37.50;12.82;;;-0.90;99.90;;;;;;5036626;28;20459;-84
2024/01/19 09:48:14;;;;;;;38.90;14.18;;;-0.70;99.90;;;;;;5037041;28;20594;-83
2024/01/19 09:50:44;;;;;;;37.53;14.55;;;-0.50;99.90;;;;;;5036767;28;20154;-84
2024/01/19 09:53:32;;;;;;;38.13;14.20;;;-0.40;99.90;;;;;;5037260;28;20674;-84
2024/01/19 09:56:01;;;;;;;33.08;12.65;;;-0.30;99.90;;;;;;5036847;28;20177;-84
2024/01/19 09:58:27;;;;;;;38.35;15.50;;;-0.30;99.90;;;;;;5036343;28;20162;-84
2024/01/19 10:00:55;;;;;;;37.63;14.87;;;-0.20;99.90;;;;;;5020525;28;20176;-85
2024/01/19 10:03:23;;;;;;;40.35;14.20;;;-0.20;99.90;;;;;;5019374;28;20416;-83
2024/01/19 10:05:51;;;;;;;40.08;17.00;;;-0.10;99.90;;;;;;5018858;28;20170;-84
2024/01/19 10:08:17;;;;;;;45.97;16.17;;;0.00;99.90;;;;;;5036467;28;20184;-84
2024/01/19 10:10:44;;;;;;;37.38;14.88;;;0.00;99.90;;;;;;5036992;28;20178;-84
2024/01/19 10:13:10;;;;;;;42.13;14.80;;;0.10;99.90;;;;;;5036343;28;20192;-83
2024/01/19 10:15:36;;;;;;;42.83;15.88;;;0.20;99.90;;;;;;5036219;28;20190;-83
2024/01/19 10:18:05;;;;;;;48.80;16.00;;;0.30;99.90;;;;;;5036023;28;20178;-83
2024/01/19 10:20:31;;;;;;;45.22;17.58;;;0.30;99.90;;;;;;5036070;28;20396;-83
2024/01/19 10:22:59;;;;;;;44.22;17.33;;;0.40;99.90;;;;;;5018090;28;20162;-83
2024/01/19 10:25:25;;;;;;;40.55;15.75;;;0.50;99.90;;;;;;5035884;28;20239;-84
2024/01/19 10:27:51;;;;;;;41.20;14.13;;;0.60;99.90;;;;;;5036207;28;20193;-84
2024/01/19 10:30:21;;;;;;;44.13;16.05;;;0.60;99.90;;;;;;5036385;28;20401;-83
2024/01/19 10:32:48;;;;;;;44.75;16.88;;;0.70;99.90;;;;;;5018207;28;20174;-83
2024/01/19 10:35:19;;;;;;;49.30;16.58;;;0.80;99.90;;;;;;5035845;28;20190;-83
2024/01/19 10:37:45;;;;;;;42.08;15.25;;;0.80;99.90;;;;;;5036975;28;20182;-83
2024/01/19 10:40:26;;;;;;;38.60;16.65;;;0.80;99.90;;;;;;5040705;28;20174;-83
2024/01/19 10:42:54;;;;;;;46.58;18.80;;;0.90;99.90;;;;;;5041113;28;20197;-84
2024/01/19 10:45:24;;;;;;;45.50;16.73;;;0.90;99.90;;;;;;5022350;28;20173;-84
2024/01/19 10:47:52;;;;;;;45.72;17.33;;;0.90;99.90;;;;;;5040934;28;20192;-83
2024/01/19 10:50:19;;;;;;;42.08;16.77;;;1.00;99.90;;;;;;5038933;28;20531;-84
2024/01/19 10:52:51;;;;;;;41.95;16.92;;;1.00;99.90;;;;;;5021473;28;20176;-84
2024/01/19 10:55:25;;;;;;;47.83;16.92;;;0.90;99.90;;;;;;5039550;28;20697;-83
2024/01/19 10:57:55;;;;;;;42.90;17.70;;;0.90;99.90;;;;;;5021315;28;20190;-84
2024/01/19 11:00:28;;;;;;;41.63;16.55;;;1.00;99.90;;;;;;5023281;28;20204;-84
2024/01/19 11:02:59;;;;;;;47.97;18.95;;;1.10;99.90;;;;;;5040551;28;20158;-85
2024/01/19 11:05:26;;;;;;;40.90;15.90;;;1.30;99.90;;;;;;5027307;28;20535;-84
2024/01/19 11:07:57;;;;;;;37.80;15.52;;;1.40;99.90;;;;;;5045707;28;20225;-85
2024/01/19 11:10:28;;;;;;;44.63;16.95;;;1.50;99.90;;;;;;5044367;28;20154;-84
2024/01/19 11:12:56;;;;;;;43.67;16.83;;;1.50;99.90;;;;;;5027747;28;20661;-84
2024/01/19 11:15:32;;;;;;;46.65;15.80;;;1.60;99.90;;;;;;5022885;28;20194;-84
2024/01/19 11:17:59;;;;;;;45.25;16.77;;;1.60;99.90;;;;;;5040664;28;20201;-84
2024/01/19 11:20:25;;;;;;;45.15;15.60;;;1.70;99.90;;;;;;5023020;28;20177;-84
2024/01/19 11:22:52;;;;;;;41.65;15.55;;;1.70;99.90;;;;;;5040328;28;20651;-85
2024/01/19 11:25:38;;;;;;;42.58;16.65;;;1.70;99.90;;;;;;5040134;28;20170;-84
2024/01/19 11:28:28;;;;;;;42.83;16.65;;;1.80;99.90;;;;;;5043287;28;20272;-85
2024/01/19 11:31:05;;;;;;;48.05;17.95;;;1.80;99.90;;;;;;5046955;28;20158;-85
2024/01/19 11:33:31;;;;;;;47.40;15.73;;;1.90;99.90;;;;;;5047836;28;20253;-85
2024/01/19 11:35:58;;;;;;;43.03;16.20;;;1.90;99.90;;;;;;5048291;28;20194;-85
2024/01/19 11:38:44;;;;;;;52.72;19.00;;;2.00;99.90;;;;;;5050601;28;20180;-86
2024/01/19 11:41:30;;;;;;;44.25;17.48;;;2.00;99.90;;;;;;5051575;28;20162;-86
2024/01/19 11:43:56;;;;;;;46.97;17.17;;;2.10;99.90;;;;;;5050868;28;20204;-87
2024/01/19 11:46:41;;;;;;;38.03;16.33;;;2.00;99.90;;;;;;5051464;28;20185;-87
2024/01/19 11:49:06;;;;;;;45.28;17.17;;;2.00;99.90;;;;;;5050122;28;20468;-86
2024/01/19 11:51:34;;;;;;;40.13;16.60;;;2.10;99.90;;;;;;5049101;28;20173;-86
2024/01/19 11:54:02;;;;;;;47.22;17.85;;;2.10;99.90;;;;;;5048512;28;20162;-87
2024/01/19 11:56:28;;;;;;;43.30;17.55;;;2.10;99.90;;;;;;5032781;28;20198;-86
2024/01/19 11:58:54;;;;;;;41.75;15.15;;;2.00;99.90;;;;;;5050513;28;20189;-86
2024/01/19 12:01:21;;;;;;;47.78;18.30;;;2.00;99.90;;;;;;5031771;28;20240;-85
2024/01/19 12:03:54;;;;;;;47.88;18.25;;;2.00;99.90;;;;;;5031451;28;20188;-87
2024/01/19 12:06:21;;;;;;;42.85;15.98;;;2.00;99.90;;;;;;5050054;28;20213;-87
2024/01/19 12:09:04;;;;;;;45.00;17.88;;;2.00;99.90;;;;;;5049339;28;20203;-87
2024/01/19 12:11:30;;;;;;;42.28;15.98;;;1.90;99.90;;;;;;5044281;28;20185;-87
2024/01/19 12:14:00;;;;;;;40.80;14.50;;;1.80;99.90;;;;;;5046099;28;20654;-87
2024/01/19 12:16:32;;;;;;;49.03;17.17;;;1.80;99.90;;;;;;5028139;28;20514;-87
2024/01/19 12:18:58;;;;;;;43.60;15.90;;;1.80;99.90;;;;;;5045610;28;20210;-86
2024/01/19 12:21:25;;;;;;;39.92;14.57;;;1.80;99.90;;;;;;5043617;28;20166;-86
2024/01/19 12:23:56;;;;;;;44.60;15.23;;;1.80;99.90;;;;;;5027134;28;20265;-86
2024/01/19 12:26:22;;;;;;;41.08;15.10;;;1.80;99.90;;;;;;5044223;28;20220;-86